sensor_id;sensor_type;location;lat;lon;timestamp;pressure;altitude;pressure_sealevel;temperature;humidity
5872;BME280;2962;51.312;7.378;2022-08-19T00:01:37;97275.44;;;17.33;100.00
5872;BME280;2962;51.312;7.378;2022-08-19T00:04:06;97286.34;;;17.41;100.00
5872;BME280;2962;51.312;7.378;2022-08-19T00:06:33;97280.88;;;17.37;100.00
5872;BME280;2962;51.312;7.378;2022-08-19T00:08:58;97289.63;;;17.32;100.00
5872;BME280;2962;51.312;7.378;2022-08-19T00:11:26;97288.84;;;17.31;100.00
5872;BME280;2962;51.312;7.378;2022-08-19T00:13:53;97292.91;;;17.23;100.00
5872;BME280;2962;51.312;7.378;2022-08-19T00:16:20;97285.84;;;17.22;100.00
5872;BME280;2962;51.312;7.378;2022-08-19T00:18:46;97302.72;;;17.24;100.00
5872;BME280;2962;51.312;7.378;2022-08-19T00:21:11;97293.31;;;17.22;100.00
5872;BME280;2962;51.312;7.378;2022-08-19T00:23:37;97291.75;;;17.21;100.00
5872;BME280;2962;51.312;7.378;2022-08-19T00:26:04;97295.81;;;17.13;100.00
5872;BME280;2962;51.312;7.378;2022-08-19T00:28:29;97289.19;;;17.06;100.00
5872;BME280;2962;51.312;7.378;2022-08-19T00:30:55;97290.44;;;17.02;100.00
5872;BME280;2962;51.312;7.378;2022-08-19T00:33:20;97280.94;;;17.06;100.00
5872;BME280;2962;51.312;7.378;2022-08-19T00:35:46;97273.84;;;17.09;100.00
5872;BME280;2962;51.312;7.378;2022-08-19T00:38:11;97275.34;;;17.14;100.00
5872;BME280;2962;51.312;7.378;2022-08-19T00:40:36;97279.63;;;17.18;100.00
5872;BME280;2962;51.312;7.378;2022-08-19T00:43:08;97275.81;;;17.08;100.00
5872;BME280;2962;51.312;7.378;2022-08-19T00:45:34;97281.88;;;17.23;100.00
5872;BME280;2962;51.312;7.378;2022-08-19T00:48:00;97275.81;;;17.36;100.00
5872;BME280;2962;51.312;7.378;2022-08-19T00:50:28;97281.00;;;17.30;100.00
5872;BME280;2962;51.312;7.378;2022-08-19T00:52:55;97283.44;;;17.24;100.00
5872;BME280;2962;51.312;7.378;2022-08-19T00:55:24;97265.66;;;17.29;100.00
5872;BME280;2962;51.312;7.378;2022-08-19T00:57:56;97267.97;;;17.34;100.00
5872;BME280;2962;51.312;7.378;2022-08-19T01:00:25;97265.94;;;17.38;100.00
5872;BME280;2962;51.312;7.378;2022-08-19T01:02:51;97263.06;;;17.45;100.00
5872;BME280;2962;51.312;7.378;2022-08-19T01:05:23;97270.19;;;17.43;100.00
5872;BME280;2962;51.312;7.378;2022-08-19T01:07:50;97264.84;;;17.32;100.00
5872;BME280;2962;51.312;7.378;2022-08-19T01:10:19;97278.25;;;17.30;100.00
5872;BME280;2962;51.312;7.378;2022-08-19T01:12:46;97281.50;;;17.21;100.00
5872;BME280;2962;51.312;7.378;2022-08-19T01:15:17;97284.03;;;17.12;100.00
5872;BME280;2962;51.312;7.378;2022-08-19T01:17:44;97271.97;;;17.02;100.00
5872;BME280;2962;51.312;7.378;2022-08-19T01:20:16;97280.59;;;17.04;100.00
5872;BME280;2962;51.312;7.378;2022-08-19T01:22:54;97275.56;;;16.99;100.00
5872;BME280;2962;51.312;7.378;2022-08-19T01:25:22;97279.59;;;16.91;100.00
5872;BME280;2962;51.312;7.378;2022-08-19T01:27:50;97275.75;;;16.85;100.00
5872;BME280;2962;51.312;7.378;2022-08-19T01:30:23;97263.63;;;16.79;100.00
5872;BME280;2962;51.312;7.378;2022-08-19T01:32:50;97263.25;;;16.80;100.00
5872;BME280;2962;51.312;7.378;2022-08-19T01:35:16;97269.09;;;16.82;100.00
5872;BME280;2962;51.312;7.378;2022-08-19T01:38:01;97270.16;;;16.92;100.00
5872;BME280;2962;51.312;7.378;2022-08-19T01:40:32;97265.47;;;16.89;100.00
5872;BME280;2962;51.312;7.378;2022-08-19T01:42:58;97272.53;;;16.90;100.00
5872;BME280;2962;51.312;7.378;2022-08-19T01:45:26;97262.81;;;16.82;100.00
5872;BME280;2962;51.312;7.378;2022-08-19T01:47:52;97262.50;;;16.76;100.00
5872;BME280;2962;51.312;7.378;2022-08-19T01:50:18;97263.78;;;16.68;100.00
5872;BME280;2962;51.312;7.378;2022-08-19T01:52:44;97250.78;;;16.69;100.00
5872;BME280;2962;51.312;7.378;2022-08-19T01:55:15;97251.91;;;16.75;100.00
5872;BME280;2962;51.312;7.378;2022-08-19T01:57:44;97245.53;;;16.81;100.00
5872;BME280;2962;51.312;7.378;2022-08-19T02:00:13;97243.84;;;16.91;100.00
5872;BME280;2962;51.312;7.378;2022-08-19T02:02:39;97249.22;;;16.98;100.00
5872;BME280;2962;51.312;7.378;2022-08-19T02:05:05;97239.41;;;16.97;100.00
5872;BME280;2962;51.312;7.378;2022-08-19T02:07:32;97249.53;;;17.04;100.00
5872;BME280;2962;51.312;7.378;2022-08-19T02:09:57;97243.28;;;17.27;100.00
5872;BME280;2962;51.312;7.378;2022-08-19T02:12:23;97237.88;;;17.20;100.00
5872;BME280;2962;51.312;7.378;2022-08-19T02:14:48;97232.44;;;17.16;100.00
5872;BME280;2962;51.312;7.378;2022-08-19T02:17:14;97236.50;;;17.08;100.00
5872;BME280;2962;51.312;7.378;2022-08-19T02:19:39;97243.31;;;17.00;100.00
5872;BME280;2962;51.312;7.378;2022-08-19T02:22:05;97252.44;;;16.93;100.00
5872;BME280;2962;51.312;7.378;2022-08-19T02:24:31;97257.66;;;16.88;100.00
5872;BME280;2962;51.312;7.378;2022-08-19T02:26:56;97261.25;;;16.81;100.00
5872;BME280;2962;51.312;7.378;2022-08-19T02:29:22;97262.81;;;16.82;100.00
5872;BME280;2962;51.312;7.378;2022-08-19T02:31:47;97251.84;;;16.78;100.00
5872;BME280;2962;51.312;7.378;2022-08-19T02:34:13;97258.84;;;16.83;100.00
5872;BME280;2962;51.312;7.378;2022-08-19T02:36:38;97255.03;;;16.77;100.00
5872;BME280;2962;51.312;7.378;2022-08-19T02:39:03;97248.31;;;16.78;100.00
5872;BME280;2962;51.312;7.378;2022-08-19T02:41:30;97246.78;;;16.77;100.00
5872;BME280;2962;51.312;7.378;2022-08-19T02:43:57;97251.13;;;16.74;100.00
5872;BME280;2962;51.312;7.378;2022-08-19T02:46:26;97251.53;;;16.73;100.00
5872;BME280;2962;51.312;7.378;2022-08-19T02:48:54;97250.72;;;16.76;100.00
5872;BME280;2962;51.312;7.378;2022-08-19T02:51:32;97254.66;;;16.75;100.00
5872;BME280;2962;51.312;7.378;2022-08-19T02:53:57;97254.94;;;16.84;100.00
5872;BME280;2962;51.312;7.378;2022-08-19T02:56:25;97259.53;;;16.91;100.00
5872;BME280;2962;51.312;7.378;2022-08-19T02:58:53;97256.75;;;16.94;100.00
5872;BME280;2962;51.312;7.378;2022-08-19T03:01:24;97258.47;;;16.84;100.00
5872;BME280;2962;51.312;7.378;2022-08-19T03:03:50;97262.03;;;16.81;100.00
5872;BME280;2962;51.312;7.378;2022-08-19T03:06:16;97254.66;;;16.75;100.00
5872;BME280;2962;51.312;7.378;2022-08-19T03:08:43;97260.16;;;16.75;100.00
5872;BME280;2962;51.312;7.378;2022-08-19T03:11:14;97251.13;;;16.74;100.00
5872;BME280;2962;51.312;7.378;2022-08-19T03:13:40;97252.28;;;16.77;100.00
5872;BME280;2962;51.312;7.378;2022-08-19T03:16:06;97242.81;;;16.78;100.00
5872;BME280;2962;51.312;7.378;2022-08-19T03:18:31;97236.50;;;16.81;100.00
5872;BME280;2962;51.312;7.378;2022-08-19T03:20:56;97252.19;;;16.84;100.00
5872;BME280;2962;51.312;7.378;2022-08-19T03:23:23;97248.88;;;16.96;100.00
5872;BME280;2962;51.312;7.378;2022-08-19T03:25:49;97249.16;;;17.02;100.00
5872;BME280;2962;51.312;7.378;2022-08-19T03:28:15;97255.63;;;17.19;100.00
5872;BME280;2962;51.312;7.378;2022-08-19T03:30:41;97248.66;;;17.11;100.00
5872;BME280;2962;51.312;7.378;2022-08-19T03:33:09;97252.81;;;17.22;100.00
5872;BME280;2962;51.312;7.378;2022-08-19T03:35:35;97254.41;;;17.20;100.00
5872;BME280;2962;51.312;7.378;2022-08-19T03:38:04;97265.47;;;17.16;100.00
5872;BME280;2962;51.312;7.378;2022-08-19T03:40:31;97264.03;;;17.08;100.00
5872;BME280;2962;51.312;7.378;2022-08-19T03:42:56;97264.56;;;16.99;100.00
5872;BME280;2962;51.312;7.378;2022-08-19T03:45:22;97259.50;;;16.94;100.00
5872;BME280;2962;51.312;7.378;2022-08-19T03:47:48;97253.41;;;17.06;100.00
5872;BME280;2962;51.312;7.378;2022-08-19T03:50:13;97255.25;;;17.40;100.00
5872;BME280;2962;51.312;7.378;2022-08-19T03:52:38;97263.84;;;17.46;100.00
5872;BME280;2962;51.312;7.378;2022-08-19T03:55:05;97256.56;;;17.32;100.00
5872;BME280;2962;51.312;7.378;2022-08-19T03:57:30;97271.75;;;17.17;100.00
5872;BME280;2962;51.312;7.378;2022-08-19T03:59:55;97268.28;;;17.13;100.00
5872;BME280;2962;51.312;7.378;2022-08-19T04:02:21;97261.75;;;17.30;100.00
5872;BME280;2962;51.312;7.378;2022-08-19T04:04:46;97261.84;;;17.23;100.00
5872;BME280;2962;51.312;7.378;2022-08-19T04:07:13;97270.00;;;17.03;100.00
5872;BME280;2962;51.312;7.378;2022-08-19T04:09:46;97267.50;;;16.85;100.00
5872;BME280;2962;51.312;7.378;2022-08-19T04:12:12;97273.16;;;16.71;100.00
5872;BME280;2962;51.312;7.378;2022-08-19T04:14:37;97273.75;;;16.55;100.00
5872;BME280;2962;51.312;7.378;2022-08-19T04:17:03;97274.16;;;16.53;100.00
5872;BME280;2962;51.312;7.378;2022-08-19T04:19:30;97269.78;;;16.56;100.00
5872;BME280;2962;51.312;7.378;2022-08-19T04:21:56;97272.66;;;16.79;100.00
5872;BME280;2962;51.312;7.378;2022-08-19T04:24:22;97266.41;;;17.06;100.00
5872;BME280;2962;51.312;7.378;2022-08-19T04:26:48;97273.00;;;17.12;100.00
5872;BME280;2962;51.312;7.378;2022-08-19T04:29:17;97268.91;;;16.97;100.00
5872;BME280;2962;51.312;7.378;2022-08-19T04:31:44;97272.19;;;16.88;100.00
5872;BME280;2962;51.312;7.378;2022-08-19T04:34:12;97283.28;;;16.81;100.00
5872;BME280;2962;51.312;7.378;2022-08-19T04:36:40;97285.28;;;16.77;100.00
5872;BME280;2962;51.312;7.378;2022-08-19T04:39:09;97285.94;;;16.88;100.00
5872;BME280;2962;51.312;7.378;2022-08-19T04:41:35;97297.06;;;17.08;100.00
5872;BME280;2962;51.312;7.378;2022-08-19T04:44:20;97283.88;;;17.23;100.00
5872;BME280;2962;51.312;7.378;2022-08-19T04:46:49;97291.84;;;17.41;100.00
5872;BME280;2962;51.312;7.378;2022-08-19T04:49:16;97289.47;;;17.43;100.00
5872;BME280;2962;51.312;7.378;2022-08-19T04:51:44;97295.50;;;17.34;100.00
5872;BME280;2962;51.312;7.378;2022-08-19T04:54:10;97290.06;;;17.54;100.00
5872;BME280;2962;51.312;7.378;2022-08-19T04:56:36;97285.06;;;17.49;100.00
5872;BME280;2962;51.312;7.378;2022-08-19T04:59:02;97287.16;;;17.65;100.00
5872;BME280;2962;51.312;7.378;2022-08-19T05:01:32;97283.81;;;17.77;100.00
5872;BME280;2962;51.312;7.378;2022-08-19T05:04:02;97287.63;;;17.83;100.00
5872;BME280;2962;51.312;7.378;2022-08-19T05:06:30;97276.00;;;17.72;100.00
5872;BME280;2962;51.312;7.378;2022-08-19T05:08:56;97279.13;;;17.74;100.00
5872;BME280;2962;51.312;7.378;2022-08-19T05:11:25;97280.22;;;17.80;100.00
5872;BME280;2962;51.312;7.378;2022-08-19T05:13:52;97283.09;;;17.96;100.00
5872;BME280;2962;51.312;7.378;2022-08-19T05:16:19;97278.09;;;18.11;100.00
5872;BME280;2962;51.312;7.378;2022-08-19T05:18:45;97281.91;;;18.17;100.00
5872;BME280;2962;51.312;7.378;2022-08-19T05:21:30;97284.59;;;18.21;100.00
5872;BME280;2962;51.312;7.378;2022-08-19T05:24:15;97288.44;;;18.27;100.00
5872;BME280;2962;51.312;7.378;2022-08-19T05:26:44;97296.84;;;18.20;100.00
5872;BME280;2962;51.312;7.378;2022-08-19T05:29:17;97306.69;;;17.97;100.00
5872;BME280;2962;51.312;7.378;2022-08-19T05:31:43;97298.97;;;17.89;100.00
5872;BME280;2962;51.312;7.378;2022-08-19T05:34:09;97304.53;;;17.85;100.00
5872;BME280;2962;51.312;7.378;2022-08-19T05:36:42;97299.59;;;17.76;100.00
5872;BME280;2962;51.312;7.378;2022-08-19T05:39:13;97301.13;;;17.77;100.00
5872;BME280;2962;51.312;7.378;2022-08-19T05:41:42;97306.00;;;17.66;100.00
5872;BME280;2962;51.312;7.378;2022-08-19T05:44:08;97307.25;;;17.38;100.00
5872;BME280;2962;51.312;7.378;2022-08-19T05:46:36;97313.03;;;17.44;100.00
5872;BME280;2962;51.312;7.378;2022-08-19T05:49:03;97293.03;;;17.40;100.00
5872;BME280;2962;51.312;7.378;2022-08-19T05:51:29;97308.03;;;17.39;100.00
5872;BME280;2962;51.312;7.378;2022-08-19T05:53:55;97306.75;;;17.43;100.00
5872;BME280;2962;51.312;7.378;2022-08-19T05:56:20;97304.88;;;17.37;100.00
5872;BME280;2962;51.312;7.378;2022-08-19T05:58:45;97301.34;;;17.36;100.00
5872;BME280;2962;51.312;7.378;2022-08-19T06:01:15;97301.34;;;17.36;100.00
5872;BME280;2962;51.312;7.378;2022-08-19T06:03:41;97301.13;;;17.27;100.00
5872;BME280;2962;51.312;7.378;2022-08-19T06:06:07;97315.13;;;17.36;100.00
5872;BME280;2962;51.312;7.378;2022-08-19T06:08:34;97300.66;;;17.55;100.00
5872;BME280;2962;51.312;7.378;2022-08-19T06:11:14;97309.06;;;17.72;100.00
5872;BME280;2962;51.312;7.378;2022-08-19T06:13:40;97296.91;;;17.69;100.00
5872;BME280;2962;51.312;7.378;2022-08-19T06:16:05;97292.19;;;17.70;100.00
5872;BME280;2962;51.312;7.378;2022-08-19T06:18:31;97304.41;;;17.69;100.00
5872;BME280;2962;51.312;7.378;2022-08-19T06:20:57;97302.03;;;17.67;100.00
5872;BME280;2962;51.312;7.378;2022-08-19T06:23:22;97302.97;;;17.61;100.00
5872;BME280;2962;51.312;7.378;2022-08-19T06:25:47;97303.69;;;17.65;100.00
5872;BME280;2962;51.312;7.378;2022-08-19T06:28:13;97313.69;;;17.78;100.00
5872;BME280;2962;51.312;7.378;2022-08-19T06:30:38;97302.13;;;17.87;100.00
5872;BME280;2962;51.312;7.378;2022-08-19T06:33:03;97309.88;;;17.96;100.00
5872;BME280;2962;51.312;7.378;2022-08-19T06:35:28;97300.34;;;18.00;100.00
5872;BME280;2962;51.312;7.378;2022-08-19T06:37:54;97304.19;;;18.07;100.00
5872;BME280;2962;51.312;7.378;2022-08-19T06:40:20;97307.44;;;18.21;100.00
5872;BME280;2962;51.312;7.378;2022-08-19T06:42:45;97306.97;;;18.26;100.00
5872;BME280;2962;51.312;7.378;2022-08-19T06:45:10;97307.88;;;18.40;100.00
5872;BME280;2962;51.312;7.378;2022-08-19T06:47:35;97306.28;;;18.62;100.00
5872;BME280;2962;51.312;7.378;2022-08-19T06:50:02;97307.63;;;18.74;100.00
5872;BME280;2962;51.312;7.378;2022-08-19T06:52:34;97305.00;;;18.87;100.00
5872;BME280;2962;51.312;7.378;2022-08-19T06:55:02;97301.81;;;18.88;100.00
5872;BME280;2962;51.312;7.378;2022-08-19T06:57:27;97306.53;;;19.08;100.00
5872;BME280;2962;51.312;7.378;2022-08-19T06:59:57;97306.63;;;19.20;100.00
5872;BME280;2962;51.312;7.378;2022-08-19T07:02:25;97302.53;;;19.45;100.00
5872;BME280;2962;51.312;7.378;2022-08-19T07:04:51;97300.06;;;19.67;100.00
5872;BME280;2962;51.312;7.378;2022-08-19T07:07:17;97297.88;;;19.58;100.00
5872;BME280;2962;51.312;7.378;2022-08-19T07:09:44;97305.31;;;19.45;100.00
5872;BME280;2962;51.312;7.378;2022-08-19T07:12:13;97298.97;;;19.44;100.00
5872;BME280;2962;51.312;7.378;2022-08-19T07:14:41;97312.41;;;19.62;100.00
5872;BME280;2962;51.312;7.378;2022-08-19T07:17:09;97313.88;;;19.67;100.00
5872;BME280;2962;51.312;7.378;2022-08-19T07:19:35;97312.16;;;19.73;100.00
5872;BME280;2962;51.312;7.378;2022-08-19T07:22:04;97312.16;;;19.73;100.00
5872;BME280;2962;51.312;7.378;2022-08-19T07:24:30;97319.22;;;19.74;100.00
5872;BME280;2962;51.312;7.378;2022-08-19T07:26:58;97321.22;;;19.90;100.00
5872;BME280;2962;51.312;7.378;2022-08-19T07:29:26;97318.97;;;19.85;100.00
5872;BME280;2962;51.312;7.378;2022-08-19T07:31:53;97327.34;;;19.97;100.00
5872;BME280;2962;51.312;7.378;2022-08-19T07:34:21;97324.03;;;20.19;100.00
5872;BME280;2962;51.312;7.378;2022-08-19T07:36:47;97321.66;;;20.34;100.00
5872;BME280;2962;51.312;7.378;2022-08-19T07:39:15;97317.41;;;20.45;100.00
5872;BME280;2962;51.312;7.378;2022-08-19T07:41:41;97317.72;;;20.47;100.00
5872;BME280;2962;51.312;7.378;2022-08-19T07:44:08;97327.09;;;20.54;100.00
5872;BME280;2962;51.312;7.378;2022-08-19T07:46:35;97325.00;;;20.58;100.00
5872;BME280;2962;51.312;7.378;2022-08-19T07:49:03;97333.09;;;20.65;100.00
5872;BME280;2962;51.312;7.378;2022-08-19T07:51:28;97341.16;;;20.59;100.00
5872;BME280;2962;51.312;7.378;2022-08-19T07:53:54;97330.16;;;20.27;100.00
5872;BME280;2962;51.312;7.378;2022-08-19T07:56:21;97350.88;;;20.51;100.00
5872;BME280;2962;51.312;7.378;2022-08-19T07:58:48;97349.38;;;20.46;100.00
5872;BME280;2962;51.312;7.378;2022-08-19T08:01:20;97357.25;;;20.48;100.00
5872;BME280;2962;51.312;7.378;2022-08-19T08:03:47;97360.63;;;20.56;100.00
5872;BME280;2962;51.312;7.378;2022-08-19T08:06:31;97348.88;;;20.81;100.00
5872;BME280;2962;51.312;7.378;2022-08-19T08:09:20;97360.81;;;21.07;100.00
5872;BME280;2962;51.312;7.378;2022-08-19T08:14:20;97363.13;;;21.08;100.00
5872;BME280;2962;51.312;7.378;2022-08-19T08:16:46;97358.03;;;21.19;100.00
5872;BME280;2962;51.312;7.378;2022-08-19T08:19:13;97365.22;;;21.17;100.00
5872;BME280;2962;51.312;7.378;2022-08-19T08:21:40;97365.13;;;21.08;100.00
5872;BME280;2962;51.312;7.378;2022-08-19T08:24:07;97365.47;;;21.23;100.00
5872;BME280;2962;51.312;7.378;2022-08-19T08:26:32;97367.50;;;21.48;100.00
5872;BME280;2962;51.312;7.378;2022-08-19T08:28:58;97370.84;;;21.55;100.00
5872;BME280;2962;51.312;7.378;2022-08-19T08:31:23;97370.63;;;21.50;100.00
5872;BME280;2962;51.312;7.378;2022-08-19T08:33:48;97365.63;;;21.44;100.00
5872;BME280;2962;51.312;7.378;2022-08-19T08:36:14;97376.53;;;21.64;100.00
5872;BME280;2962;51.312;7.378;2022-08-19T08:38:41;97371.50;;;21.85;100.00
5872;BME280;2962;51.312;7.378;2022-08-19T08:43:46;97373.97;;;21.70;100.00
5872;BME280;2962;51.312;7.378;2022-08-19T08:46:21;97372.84;;;21.55;100.00
5872;BME280;2962;51.312;7.378;2022-08-19T08:51:51;97367.16;;;21.33;100.00
5872;BME280;2962;51.312;7.378;2022-08-19T08:54:20;97359.22;;;21.60;100.00
5872;BME280;2962;51.312;7.378;2022-08-19T08:56:47;97361.16;;;22.11;100.00
5872;BME280;2962;51.312;7.378;2022-08-19T08:59:24;97367.94;;;22.23;100.00
5872;BME280;2962;51.312;7.378;2022-08-19T09:01:52;97363.16;;;21.98;100.00
5872;BME280;2962;51.312;7.378;2022-08-19T09:04:18;97362.91;;;22.30;100.00
5872;BME280;2962;51.312;7.378;2022-08-19T09:07:06;97361.59;;;22.57;100.00
5872;BME280;2962;51.312;7.378;2022-08-19T09:09:40;97366.03;;;22.20;100.00
5872;BME280;2962;51.312;7.378;2022-08-19T09:14:53;97366.03;;;22.54;100.00
5872;BME280;2962;51.312;7.378;2022-08-19T09:17:25;97358.47;;;22.55;100.00
5872;BME280;2962;51.312;7.378;2022-08-19T09:20:22;97360.94;;;22.53;100.00
5872;BME280;2962;51.312;7.378;2022-08-19T09:22:48;97360.56;;;22.63;100.00
5872;BME280;2962;51.312;7.378;2022-08-19T09:25:16;97361.47;;;23.26;100.00
5872;BME280;2962;51.312;7.378;2022-08-19T09:27:42;97358.59;;;23.39;100.00
5872;BME280;2962;51.312;7.378;2022-08-19T09:30:14;97354.41;;;23.34;100.00
5872;BME280;2962;51.312;7.378;2022-08-19T09:32:40;97358.88;;;23.32;100.00
5872;BME280;2962;51.312;7.378;2022-08-19T09:35:07;97357.19;;;23.34;100.00
5872;BME280;2962;51.312;7.378;2022-08-19T09:37:33;97368.91;;;23.29;100.00
5872;BME280;2962;51.312;7.378;2022-08-19T09:39:58;97365.13;;;23.14;100.00
5872;BME280;2962;51.312;7.378;2022-08-19T09:42:23;97359.88;;;23.16;100.00
5872;BME280;2962;51.312;7.378;2022-08-19T09:44:49;97361.94;;;22.81;100.00
5872;BME280;2962;51.312;7.378;2022-08-19T09:47:14;97362.97;;;23.18;100.00
5872;BME280;2962;51.312;7.378;2022-08-19T09:49:40;97356.31;;;23.78;100.00
5872;BME280;2962;51.312;7.378;2022-08-19T09:52:09;97352.72;;;24.27;100.00
5872;BME280;2962;51.312;7.378;2022-08-19T09:54:35;97348.84;;;24.24;100.00
5872;BME280;2962;51.312;7.378;2022-08-19T09:57:00;97352.19;;;23.92;100.00
5872;BME280;2962;51.312;7.378;2022-08-19T09:59:27;97355.44;;;23.59;100.00
5872;BME280;2962;51.312;7.378;2022-08-19T10:01:52;97363.16;;;23.24;100.00
5872;BME280;2962;51.312;7.378;2022-08-19T10:04:18;97360.41;;;23.02;100.00
5872;BME280;2962;51.312;7.378;2022-08-19T10:06:43;97361.72;;;22.75;100.00
5872;BME280;2962;51.312;7.378;2022-08-19T10:09:10;97357.59;;;22.58;100.00
5872;BME280;2962;51.312;7.378;2022-08-19T10:11:39;97364.16;;;22.51;100.00
5872;BME280;2962;51.312;7.378;2022-08-19T10:14:05;97355.84;;;23.17;100.00
5872;BME280;2962;51.312;7.378;2022-08-19T10:16:31;97351.00;;;24.11;100.00
5872;BME280;2962;51.312;7.378;2022-08-19T10:18:57;97348.66;;;24.09;100.00
5872;BME280;2962;51.312;7.378;2022-08-19T10:21:31;97354.84;;;23.33;100.00
5872;BME280;2962;51.312;7.378;2022-08-19T10:23:59;97357.31;;;23.00;100.00
5872;BME280;2962;51.312;7.378;2022-08-19T10:26:27;97356.84;;;22.79;100.00
5872;BME280;2962;51.312;7.378;2022-08-19T10:28:53;97357.75;;;22.98;100.00
5872;BME280;2962;51.312;7.378;2022-08-19T10:31:21;97356.34;;;23.56;100.00
5872;BME280;2962;51.312;7.378;2022-08-19T10:33:48;97349.34;;;24.50;100.00
5872;BME280;2962;51.312;7.378;2022-08-19T10:36:16;97350.81;;;25.34;100.00
5872;BME280;2962;51.312;7.378;2022-08-19T10:38:44;97341.44;;;25.55;100.00
5872;BME280;2962;51.312;7.378;2022-08-19T10:41:20;97346.03;;;25.25;100.00
5872;BME280;2962;51.312;7.378;2022-08-19T10:43:47;97346.69;;;25.11;100.00
5872;BME280;2962;51.312;7.378;2022-08-19T10:46:15;97340.47;;;25.25;100.00
5872;BME280;2962;51.312;7.378;2022-08-19T10:48:42;97341.34;;;25.41;100.00
5872;BME280;2962;51.312;7.378;2022-08-19T10:51:08;97343.44;;;25.55;100.00
5872;BME280;2962;51.312;7.378;2022-08-19T10:53:52;97338.91;;;25.24;100.00
5872;BME280;2962;51.312;7.378;2022-08-19T10:56:18;97344.47;;;25.24;100.00
5872;BME280;2962;51.312;7.378;2022-08-19T10:59:04;97335.06;;;25.22;100.00
5872;BME280;2962;51.312;7.378;2022-08-19T11:01:31;97339.22;;;25.69;100.00
5872;BME280;2962;51.312;7.378;2022-08-19T11:03:58;97342.97;;;25.99;100.00
5872;BME280;2962;51.312;7.378;2022-08-19T11:06:24;97336.13;;;26.48;100.00
5872;BME280;2962;51.312;7.378;2022-08-19T11:08:53;97333.16;;;26.27;100.00
5872;BME280;2962;51.312;7.378;2022-08-19T11:11:19;97331.28;;;25.67;100.00
5872;BME280;2962;51.312;7.378;2022-08-19T11:13:45;97352.28;;;24.74;100.00
5872;BME280;2962;51.312;7.378;2022-08-19T11:16:17;97338.72;;;23.81;100.00
5872;BME280;2962;51.312;7.378;2022-08-19T11:18:45;97330.50;;;23.86;100.00
5872;BME280;2962;51.312;7.378;2022-08-19T11:21:16;97339.63;;;24.46;100.00
5872;BME280;2962;51.312;7.378;2022-08-19T11:23:44;97331.03;;;25.23;100.00
5872;BME280;2962;51.312;7.378;2022-08-19T11:26:10;97325.34;;;25.50;100.00
5872;BME280;2962;51.312;7.378;2022-08-19T11:28:36;97322.03;;;25.61;100.00
5872;BME280;2962;51.312;7.378;2022-08-19T11:31:01;97332.25;;;25.97;100.00
5872;BME280;2962;51.312;7.378;2022-08-19T11:33:29;97314.91;;;26.17;100.00
5872;BME280;2962;51.312;7.378;2022-08-19T11:35:57;97326.06;;;26.80;100.00
5872;BME280;2962;51.312;7.378;2022-08-19T11:38:23;97329.06;;;26.14;100.00
5872;BME280;2962;51.312;7.378;2022-08-19T11:40:59;97322.41;;;26.89;100.00
5872;BME280;2962;51.312;7.378;2022-08-19T11:43:26;97320.59;;;28.15;100.00
5872;BME280;2962;51.312;7.378;2022-08-19T11:45:53;97299.75;;;28.37;100.00
5872;BME280;2962;51.312;7.378;2022-08-19T11:48:18;97314.53;;;27.67;100.00
5872;BME280;2962;51.312;7.378;2022-08-19T11:50:48;97314.34;;;27.70;100.00
5872;BME280;2962;51.312;7.378;2022-08-19T11:53:14;97311.13;;;26.68;100.00
5872;BME280;2962;51.312;7.378;2022-08-19T11:55:39;97315.66;;;26.42;100.00
5872;BME280;2962;51.312;7.378;2022-08-19T11:58:05;97307.50;;;26.14;100.00
5872;BME280;2962;51.312;7.378;2022-08-19T12:00:32;97320.72;;;25.80;100.00
5872;BME280;2962;51.312;7.378;2022-08-19T12:02:58;97329.66;;;25.51;100.00
5872;BME280;2962;51.312;7.378;2022-08-19T12:05:23;97325.88;;;26.21;100.00
5872;BME280;2962;51.312;7.378;2022-08-19T12:07:48;97314.25;;;27.15;100.00
5872;BME280;2962;51.312;7.378;2022-08-19T12:10:14;97319.53;;;27.92;100.00
5872;BME280;2962;51.312;7.378;2022-08-19T12:12:40;97309.72;;;29.16;100.00
5872;BME280;2962;51.312;7.378;2022-08-19T12:15:08;97305.88;;;29.77;97.26
5872;BME280;2962;51.312;7.378;2022-08-19T12:17:34;97303.81;;;29.72;90.48
5872;BME280;2962;51.312;7.378;2022-08-19T12:19:59;97315.94;;;28.74;99.29
5872;BME280;2962;51.312;7.378;2022-08-19T12:22:25;97329.84;;;26.92;100.00
5872;BME280;2962;51.312;7.378;2022-08-19T12:24:52;97317.94;;;26.52;100.00
5872;BME280;2962;51.312;7.378;2022-08-19T12:27:18;97314.81;;;27.34;100.00
5872;BME280;2962;51.312;7.378;2022-08-19T12:29:44;97323.84;;;26.69;100.00
5872;BME280;2962;51.312;7.378;2022-08-19T12:32:09;97319.06;;;27.14;100.00
5872;BME280;2962;51.312;7.378;2022-08-19T12:34:35;97308.09;;;27.61;100.00
5872;BME280;2962;51.312;7.378;2022-08-19T12:37:03;97300.41;;;28.99;100.00
5872;BME280;2962;51.312;7.378;2022-08-19T12:39:29;97304.81;;;30.77;96.33
5872;BME280;2962;51.312;7.378;2022-08-19T12:41:56;97303.31;;;31.21;85.24
5872;BME280;2962;51.312;7.378;2022-08-19T12:44:22;97305.47;;;30.49;80.94
5872;BME280;2962;51.312;7.378;2022-08-19T12:46:48;97303.34;;;30.27;86.56
5872;BME280;2962;51.312;7.378;2022-08-19T12:49:14;97307.13;;;30.89;78.62
5872;BME280;2962;51.312;7.378;2022-08-19T12:51:41;97309.38;;;32.15;68.22
5872;BME280;2962;51.312;7.378;2022-08-19T12:54:06;97287.97;;;31.27;76.39
5872;BME280;2962;51.312;7.378;2022-08-19T12:56:31;97292.34;;;30.24;87.11
5872;BME280;2962;51.312;7.378;2022-08-19T12:59:01;97292.47;;;28.45;100.00
5872;BME280;2962;51.312;7.378;2022-08-19T13:01:26;97287.88;;;27.86;100.00
5872;BME280;2962;51.312;7.378;2022-08-19T13:03:52;97294.19;;;27.16;100.00
5872;BME280;2962;51.312;7.378;2022-08-19T13:06:18;97283.09;;;26.39;100.00
5872;BME280;2962;51.312;7.378;2022-08-19T13:08:43;97283.97;;;25.49;100.00
5872;BME280;2962;51.312;7.378;2022-08-19T13:11:10;97291.53;;;26.53;100.00
5872;BME280;2962;51.312;7.378;2022-08-19T13:13:37;97279.50;;;27.07;100.00
5872;BME280;2962;51.312;7.378;2022-08-19T13:16:06;97285.03;;;27.66;100.00
5872;BME280;2962;51.312;7.378;2022-08-19T13:18:31;97271.47;;;28.87;88.27
5872;BME280;2962;51.312;7.378;2022-08-19T13:20:57;97271.94;;;29.43;81.94
5872;BME280;2962;51.312;7.378;2022-08-19T13:23:22;97271.44;;;29.82;72.45
5872;BME280;2962;51.312;7.378;2022-08-19T13:26:01;97261.88;;;31.21;65.01